Time;durP1;ratioP1;P1;durP2;ratioP2;P2;SDS_P1;SDS_P2;PMS_P1;PMS_P2;Temp;Humidity;BMP_temperature;BMP_pressure;BME280_temperature;BME280_humidity;BME280_pressure;Samples;Min_cycle;Max_cycle;Signal;HPM_P1;HPM_P2
2021/04/09 00:04:37;;;;;;;11.48;4.57;;;3.30;99.90;;;;;;6722724;88;20613;-74
2021/04/09 00:14:38;;;;;;;9.02;4.07;;;3.30;99.90;;;;;;6722692;88;20185;-73
2021/04/09 00:24:38;;;;;;;8.43;3.65;;;3.30;99.90;;;;;;6719430;88;20274;-73
2021/04/09 00:34:39;;;;;;;9.02;3.95;;;3.30;99.90;;;;;;6722817;88;20200;-73
2021/04/09 00:44:39;;;;;;;8.40;4.00;;;3.30;99.90;;;;;;6723139;88;20259;-73
2021/04/09 00:54:40;;;;;;;6.78;3.70;;;3.30;99.90;;;;;;6720021;88;20642;-73
2021/04/09 01:04:40;;;;;;;8.65;4.37;;;3.20;99.90;;;;;;6728036;88;20206;-74
2021/04/09 01:14:41;;;;;;;9.43;4.05;;;3.20;99.90;;;;;;6726654;88;20301;-74
2021/04/09 01:25:07;;;;;;;10.03;4.80;;;3.00;99.90;;;;;;6725525;88;20745;-74
2021/04/09 01:35:16;;;;;;;8.13;4.25;;;3.10;99.90;;;;;;6726248;88;21077;-74
2021/04/09 01:45:18;;;;;;;10.15;4.68;;;3.10;99.90;;;;;;6738586;88;20182;-74
2021/04/09 01:55:20;;;;;;;8.35;3.95;;;3.10;99.90;;;;;;6731871;88;20850;-75
2021/04/09 02:05:23;;;;;;;8.10;3.30;;;3.10;99.90;;;;;;6729839;88;20177;-75
2021/04/09 02:15:25;;;;;;;7.78;3.85;;;3.10;99.90;;;;;;6730201;88;20200;-74
2021/04/09 02:25:26;;;;;;;7.50;3.70;;;3.00;99.90;;;;;;6730474;88;20200;-73
2021/04/09 02:35:26;;;;;;;8.03;3.57;;;3.00;99.90;;;;;;6729558;88;20198;-74
2021/04/09 02:45:27;;;;;;;11.00;4.25;;;3.00;99.90;;;;;;6730874;88;20486;-74
2021/04/09 02:55:33;;;;;;;10.93;4.20;;;3.00;99.90;;;;;;6726425;88;20229;-74
2021/04/09 03:05:34;;;;;;;11.35;4.45;;;2.90;99.90;;;;;;6730545;88;20208;-74
2021/04/09 03:15:43;;;;;;;10.05;4.87;;;2.90;99.90;;;;;;6724233;88;20189;-74
2021/04/09 03:25:43;;;;;;;9.73;4.40;;;2.90;99.90;;;;;;6730860;88;20912;-74
2021/04/09 03:35:44;;;;;;;9.85;4.93;;;2.80;99.90;;;;;;6731156;88;20280;-75
2021/04/09 03:45:44;;;;;;;11.18;4.80;;;2.80;99.90;;;;;;6733457;88;20172;-74
2021/04/09 03:55:45;;;;;;;8.52;4.37;;;2.70;99.90;;;;;;6729376;88;20475;-73
2021/04/09 04:05:45;;;;;;;9.13;4.07;;;2.70;99.90;;;;;;6724489;88;20698;-74
2021/04/09 04:15:46;;;;;;;11.23;4.53;;;2.80;99.90;;;;;;6725432;88;20934;-74
2021/04/09 04:25:46;;;;;;;13.60;4.25;;;2.80;99.90;;;;;;6729405;88;20255;-74
2021/04/09 04:35:48;;;;;;;9.68;4.60;;;2.90;99.90;;;;;;6728335;88;20223;-74
2021/04/09 04:45:48;;;;;;;7.68;4.37;;;3.00;99.90;;;;;;6728093;88;20192;-74
2021/04/09 05:06:14;;;;;;;11.70;5.37;;;3.10;99.90;;;;;;6735597;88;20306;-76
2021/04/09 05:16:14;;;;;;;9.02;4.47;;;3.10;99.90;;;;;;6715543;88;20220;-76
2021/04/09 05:26:15;;;;;;;7.93;4.32;;;3.10;99.90;;;;;;6669362;89;20190;-77
2021/04/09 05:36:15;;;;;;;9.40;4.43;;;3.10;99.90;;;;;;6666626;88;20574;-76
2021/04/09 05:46:16;;;;;;;7.35;3.83;;;3.30;99.90;;;;;;6669691;89;20729;-77
2021/04/09 05:56:16;;;;;;;7.57;4.30;;;3.50;99.90;;;;;;6668992;89;20282;-76
2021/04/09 06:06:17;;;;;;;10.38;4.62;;;3.70;99.90;;;;;;6700186;87;20358;-76
2021/04/09 06:16:18;;;;;;;12.95;4.90;;;4.10;99.90;;;;;;6722787;88;20199;-79
2021/04/09 06:26:19;;;;;;;9.20;4.55;;;4.50;99.90;;;;;;6666104;89;20297;-77
2021/04/09 06:36:19;;;;;;;8.35;3.58;;;5.00;99.90;;;;;;6668241;89;20231;-75
2021/04/09 06:46:20;;;;;;;10.13;3.72;;;5.90;99.90;;;;;;6670700;89;20199;-76
2021/04/09 06:56:23;;;;;;;5.53;3.40;;;6.60;99.90;;;;;;6670486;89;20219;-75
2021/04/09 07:06:29;;;;;;;8.35;3.83;;;7.10;99.90;;;;;;6666974;88;20642;-74
2021/04/09 07:16:30;;;;;;;;;;;7.30;99.90;;;;;;6670140;89;20190;-75
2021/04/09 07:26:51;;;;;;;9.98;4.22;;;7.70;99.90;;;;;;6668569;89;20601;-76
2021/04/09 07:36:54;;;;;;;7.37;3.67;;;8.10;99.90;;;;;;6668728;89;20703;-76
2021/04/09 07:47:16;;;;;;;8.77;3.20;;;8.50;99.90;;;;;;6667677;89;20222;-76
2021/04/09 07:57:28;;;;;;;10.70;3.42;;;9.70;97.80;;;;;;6669367;88;20206;-77
2021/04/09 08:07:36;;;;;;;7.72;3.20;;;10.60;94.20;;;;;;6664148;88;20212;-76
2021/04/09 08:17:37;;;;;;;6.80;3.00;;;11.30;91.30;;;;;;6663655;89;20319;-77
2021/04/09 08:27:38;;;;;;;8.00;3.00;;;11.90;88.20;;;;;;6666380;88;20178;-76
2021/04/09 08:37:41;;;;;;;7.57;3.62;;;12.20;86.50;;;;;;6666956;89;20198;-76
2021/04/09 08:47:42;;;;;;;6.50;2.42;;;13.00;87.50;;;;;;6666656;88;20211;-77
2021/04/09 08:57:45;;;;;;;10.05;2.70;;;12.90;83.70;;;;;;6665521;89;20242;-76
2021/04/09 09:07:48;;;;;;;6.22;2.97;;;13.30;82.90;;;;;;6705295;88;20746;-75
2021/04/09 09:17:49;;;;;;;4.95;2.87;;;13.50;80.20;;;;;;6752601;88;20199;-76
2021/04/09 09:27:51;;;;;;;4.93;2.67;;;13.60;78.30;;;;;;6753240;88;20625;-76
2021/04/09 09:37:51;;;;;;;5.25;2.72;;;13.60;77.10;;;;;;6749666;88;20644;-75
2021/04/09 09:48:12;;;;;;;7.72;2.92;;;13.60;78.10;;;;;;6753213;88;20187;-76
2021/04/09 09:58:24;;;;;;;4.80;2.70;;;14.00;77.40;;;;;;6753256;88;20313;-75
2021/04/09 10:08:26;;;;;;;4.85;2.40;;;15.20;75.10;;;;;;6749408;87;20205;-76
2021/04/09 10:18:27;;;;;;;6.90;2.70;;;14.80;74.00;;;;;;6756456;87;20706;-76
2021/04/09 10:28:35;;;;;;;6.22;2.83;;;15.60;73.10;;;;;;6752781;87;20326;-77
2021/04/09 10:38:35;;;;;;;6.37;2.95;;;16.10;72.30;;;;;;6758655;87;20757;-78
2021/04/09 10:48:37;;;;;;;7.32;3.42;;;16.30;70.70;;;;;;6757667;88;20187;-76
2021/04/09 10:58:40;;;;;;;5.43;2.45;;;16.20;68.80;;;;;;6757042;88;20596;-78
2021/04/09 11:08:41;;;;;;;4.95;2.92;;;16.30;66.90;;;;;;6754273;88;20257;-76
2021/04/09 11:18:48;;;;;;;6.18;3.25;;;16.70;68.10;;;;;;6759506;88;20198;-77
2021/04/09 11:28:53;;;;;;;5.65;2.62;;;17.10;68.20;;;;;;6755691;87;20308;-77
2021/04/09 11:39:10;;;;;;;6.63;2.90;;;18.00;64.80;;;;;;6751900;87;20674;-77
2021/04/09 11:49:11;;;;;;;3.83;2.60;;;17.20;64.20;;;;;;6762567;87;20187;-76
2021/04/09 11:59:19;;;;;;;4.72;2.90;;;18.00;63.90;;;;;;6758158;88;20192;-76
2021/04/09 12:09:19;;;;;;;6.68;2.80;;;18.10;62.10;;;;;;6769387;87;20199;-77
2021/04/09 12:19:20;;;;;;;6.75;2.87;;;17.90;60.10;;;;;;6753827;88;20209;-76
2021/04/09 12:29:20;;;;;;;6.25;2.55;;;18.50;58.90;;;;;;6752700;87;20206;-77
2021/04/09 12:39:22;;;;;;;4.62;2.65;;;19.00;57.60;;;;;;6752502;87;20191;-75
2021/04/09 12:49:23;;;;;;;4.78;2.90;;;18.80;55.60;;;;;;6749382;88;20578;-77
2021/04/09 12:59:23;;;;;;;5.50;2.22;;;18.60;55.60;;;;;;6749567;87;20231;-76
2021/04/09 13:09:25;;;;;;;5.25;2.22;;;18.60;54.70;;;;;;6753758;87;20234;-76
2021/04/09 13:19:27;;;;;;;5.22;2.55;;;19.60;55.10;;;;;;6762397;88;20248;-77
2021/04/09 13:29:27;;;;;;;5.07;2.50;;;18.20;56.40;;;;;;6756739;87;20188;-77
2021/04/09 13:39:28;;;;;;;4.47;2.17;;;18.80;54.60;;;;;;6763850;87;20623;-78
2021/04/09 13:49:29;;;;;;;4.47;2.12;;;19.90;54.60;;;;;;6750218;88;20191;-79
2021/04/09 13:59:29;;;;;;;4.22;2.12;;;20.10;53.90;;;;;;6754520;87;20271;-78
2021/04/09 14:09:30;;;;;;;5.43;2.30;;;20.50;52.70;;;;;;6754602;87;20672;-77
2021/04/09 14:19:30;;;;;;;4.60;1.73;;;20.20;52.50;;;;;;6754507;87;20228;-79
2021/04/09 14:29:31;;;;;;;4.33;2.23;;;20.10;50.70;;;;;;6753040;87;20217;-78
2021/04/09 14:39:32;;;;;;;4.90;1.83;;;19.50;52.10;;;;;;6754066;87;20224;-78
2021/04/09 14:49:32;;;;;;;4.73;2.27;;;19.90;51.90;;;;;;6750665;87;20187;-78
2021/04/09 14:59:33;;;;;;;3.08;1.90;;;19.50;52.50;;;;;;6753931;87;20222;-75
2021/04/09 15:09:33;;;;;;;7.00;2.00;;;19.20;52.70;;;;;;6754246;88;20975;-77
2021/04/09 15:19:35;;;;;;;5.75;1.90;;;19.50;52.80;;;;;;6750416;87;20249;-76
2021/04/09 15:29:35;;;;;;;3.95;2.10;;;19.70;51.70;;;;;;6753646;88;20313;-76
2021/04/09 15:39:36;;;;;;;7.20;2.05;;;17.70;55.00;;;;;;6754557;88;20200;-77
2021/04/09 15:49:37;;;;;;;6.40;2.33;;;17.40;55.60;;;;;;6754187;88;20196;-77
2021/04/09 15:59:37;;;;;;;6.28;2.50;;;16.70;57.40;;;;;;6755236;87;20243;-76
2021/04/09 16:09:38;;;;;;;5.93;2.90;;;16.70;58.40;;;;;;6764814;88;20217;-77
2021/04/09 16:19:39;;;;;;;8.10;3.10;;;16.80;60.10;;;;;;6757646;87;20254;-77
2021/04/09 16:29:39;;;;;;;6.97;3.42;;;16.70;60.30;;;;;;6764191;88;20217;-77
2021/04/09 16:39:40;;;;;;;8.07;3.42;;;17.10;61.20;;;;;;6753652;87;20660;-76
2021/04/09 16:49:40;;;;;;;8.43;3.70;;;16.70;60.90;;;;;;6752611;88;20286;-77
2021/04/09 16:59:42;;;;;;;9.25;3.75;;;16.40;62.70;;;;;;6724576;87;20192;-76
2021/04/09 17:09:42;;;;;;;8.73;3.92;;;16.10;62.60;;;;;;6713916;88;20199;-76
2021/04/09 17:19:43;;;;;;;7.72;4.65;;;16.00;65.50;;;;;;6665726;89;20233;-76
2021/04/09 17:29:43;;;;;;;7.95;4.28;;;15.70;66.40;;;;;;6663021;89;20368;-75
2021/04/09 17:39:47;;;;;;;6.95;4.28;;;15.20;68.10;;;;;;6662393;88;20301;-76
2021/04/09 17:49:48;;;;;;;8.45;4.53;;;14.90;68.70;;;;;;6661686;89;20308;-78
2021/04/09 17:59:48;;;;;;;10.98;4.37;;;14.60;69.50;;;;;;6658983;89;20185;-76
2021/04/09 18:09:49;;;;;;;8.70;5.28;;;14.50;70.30;;;;;;6657895;88;20199;-74
2021/04/09 18:19:54;;;;;;;9.23;5.28;;;14.20;71.60;;;;;;6660583;88;20742;-75
2021/04/09 18:29:54;;;;;;;12.70;7.28;;;14.00;73.00;;;;;;6672836;88;20290;-77
2021/04/09 18:39:55;;;;;;;10.20;6.07;;;13.40;75.30;;;;;;6664284;89;20219;-76
2021/04/09 18:49:55;;;;;;;14.18;6.50;;;13.20;77.60;;;;;;6667310;89;20296;-76
2021/04/09 18:59:56;;;;;;;14.05;6.25;;;13.10;80.50;;;;;;6657118;88;20195;-75
2021/04/09 19:09:57;;;;;;;10.30;5.55;;;13.10;82.20;;;;;;6673288;89;20195;-76
2021/04/09 19:19:57;;;;;;;10.38;5.78;;;13.00;84.40;;;;;;6666812;89;20183;-74
2021/04/09 19:30:01;;;;;;;12.48;5.90;;;12.80;87.40;;;;;;6676518;88;20260;-75
2021/04/09 19:40:02;;;;;;;12.02;6.32;;;12.60;90.50;;;;;;6666506;89;20183;-76
2021/04/09 19:50:06;;;;;;;10.35;6.25;;;12.80;89.00;;;;;;6664957;89;20244;-76
2021/04/09 20:00:09;;;;;;;10.82;6.53;;;12.60;91.90;;;;;;6662596;89;20291;-75
2021/04/09 20:10:15;;;;;;;16.17;7.10;;;12.50;92.60;;;;;;6658384;88;20187;-75
2021/04/09 20:20:16;;;;;;;14.35;6.50;;;12.20;94.60;;;;;;6663620;89;20200;-73
2021/04/09 20:30:17;;;;;;;12.00;6.53;;;12.50;93.50;;;;;;6667379;89;20211;-76
2021/04/09 20:40:18;;;;;;;10.75;6.22;;;12.10;94.30;;;;;;6663613;89;20679;-76
2021/04/09 20:50:18;;;;;;;13.50;6.65;;;12.00;98.10;;;;;;6676214;88;20204;-73
2021/04/09 21:00:20;;;;;;;14.18;6.50;;;11.80;99.90;;;;;;6663597;88;20201;-74
2021/04/09 21:10:21;;;;;;;12.25;6.47;;;11.60;99.90;;;;;;6661977;88;20184;-75
2021/04/09 21:20:22;;;;;;;12.00;6.05;;;10.90;99.90;;;;;;6663804;89;20180;-75
2021/04/09 21:30:23;;;;;;;16.35;7.62;;;10.10;99.90;;;;;;6663920;89;20241;-75
2021/04/09 21:40:26;;;;;;;16.87;8.02;;;9.70;99.90;;;;;;6659069;89;20203;-75
2021/04/09 21:50:26;;;;;;;12.15;7.75;;;9.40;99.90;;;;;;6661830;89;20188;-74
2021/04/09 22:00:30;;;;;;;15.15;8.73;;;9.20;99.90;;;;;;6662722;89;20716;-75
2021/04/09 22:10:33;;;;;;;14.80;8.35;;;9.10;99.90;;;;;;6664096;88;20194;-75
2021/04/09 22:20:37;;;;;;;15.38;8.60;;;9.00;99.90;;;;;;6665317;89;20219;-73
2021/04/09 22:30:39;;;;;;;14.50;8.60;;;8.90;99.90;;;;;;6664745;89;20659;-74
2021/04/09 22:40:40;;;;;;;18.17;9.38;;;8.90;99.90;;;;;;6665010;89;20555;-74
2021/04/09 22:50:40;;;;;;;16.37;9.07;;;9.00;99.90;;;;;;6664157;89;20275;-74
2021/04/09 23:00:41;;;;;;;15.63;8.65;;;8.80;99.90;;;;;;6679651;76;20322;-75
2021/04/09 23:10:41;;;;;;;14.80;8.27;;;8.80;99.90;;;;;;6666584;88;20875;-75
2021/04/09 23:20:42;;;;;;;17.67;9.45;;;8.70;99.90;;;;;;6666056;88;20193;-75
2021/04/09 23:30:42;;;;;;;16.95;9.05;;;8.50;99.90;;;;;;6656106;88;20420;-75
2021/04/09 23:40:43;;;;;;;16.42;10.02;;;8.30;99.90;;;;;;6705178;88;20713;-77
2021/04/09 23:50:44;;;;;;;17.60;9.57;;;8.30;99.90;;;;;;6720358;88;20238;-77
